KCEZ/CEZ METAR and TAF weather

Enter ICAO airport designator
Station Type Date Time Source
KCEZ METAR 2021/03/02 02:53 UTC NOAA

KCEZ 020253Z AUTO 06006KT 10SM CLR M04/M11 A3032 RMK AO2 SLP298 T10391106 51006


Station Type Date Time Source
KCEZ Decoded METAR 2021/03/02 02:53 UTC NOAA

CORTEZ MONTEZUMA COUNTY AIRPORT , CO, United States (KCEZ) 37-18N 108-38W 1797M
Mar 01, 2021 - 09:53 PM EST / 2021.03.02 0253 UTC
Wind: from the ENE (060 degrees) at 7 MPH (6 KT):0
Visibility: 10 mile(s):0
Sky conditions: clear
Temperature: 25.0 F (-3.9 C)
Windchill: 17 F (-8 C):1
Dew Point: 12.9 F (-10.6 C)
Relative Humidity: 59%
Pressure (altimeter): 30.32 in. Hg (1026 hPa)
Pressure tendency: 0.02 inches (0.6 hPa) higher than three hours ago
ob: KCEZ 020253Z AUTO 06006KT 10SM CLR M04/M11 A3032 RMK AO2 SLP298 T10391106 51006
cycle: 3

Station Type Date Time Source
KCEZ TAF UTC NOAA

Error!

Example: see airport list